sensor_id;sensor_type;location;lat;lon;timestamp;P1;durP1;ratioP1;P2;durP2;ratioP2
12459;SDS011;6295;49.452;8.466;2023-08-17T03:13:45;3.30;;;3.00;;
12459;SDS011;6295;49.452;8.466;2023-08-17T03:17:48;3.40;;;2.73;;
12459;SDS011;6295;49.452;8.466;2023-08-17T03:21:50;3.70;;;3.00;;
12459;SDS011;6295;49.452;8.466;2023-08-17T03:25:52;2.90;;;2.70;;
12459;SDS011;6295;49.452;8.466;2023-08-17T03:29:56;3.80;;;2.83;;
12459;SDS011;6295;49.452;8.466;2023-08-17T03:33:58;4.80;;;3.03;;
12459;SDS011;6295;49.452;8.466;2023-08-17T03:38:00;3.57;;;3.27;;
12459;SDS011;6295;49.452;8.466;2023-08-17T03:42:02;4.33;;;3.00;;
12459;SDS011;6295;49.452;8.466;2023-08-17T03:46:06;4.40;;;3.10;;
12459;SDS011;6295;49.452;8.466;2023-08-17T03:50:09;4.67;;;2.90;;
12459;SDS011;6295;49.452;8.466;2023-08-17T03:54:11;3.60;;;3.10;;
12459;SDS011;6295;49.452;8.466;2023-08-17T03:58:14;4.17;;;3.20;;
12459;SDS011;6295;49.452;8.466;2023-08-17T04:02:18;3.40;;;2.67;;
12459;SDS011;6295;49.452;8.466;2023-08-17T04:06:20;3.90;;;2.87;;
12459;SDS011;6295;49.452;8.466;2023-08-17T04:10:22;3.23;;;3.00;;
12459;SDS011;6295;49.452;8.466;2023-08-17T04:14:24;5.23;;;3.10;;
12459;SDS011;6295;49.452;8.466;2023-08-17T04:18:28;3.57;;;3.23;;
12459;SDS011;6295;49.452;8.466;2023-08-17T04:22:30;4.17;;;3.53;;
12459;SDS011;6295;49.452;8.466;2023-08-17T04:26:32;4.67;;;3.80;;
12459;SDS011;6295;49.452;8.466;2023-08-17T04:30:34;5.20;;;3.87;;
12459;SDS011;6295;49.452;8.466;2023-08-17T04:34:38;7.07;;;6.37;;
12459;SDS011;6295;49.452;8.466;2023-08-17T04:38:42;11.53;;;8.50;;
12459;SDS011;6295;49.452;8.466;2023-08-17T04:42:44;13.27;;;11.03;;
12459;SDS011;6295;49.452;8.466;2023-08-17T04:46:47;18.63;;;14.30;;
12459;SDS011;6295;49.452;8.466;2023-08-17T04:50:50;14.33;;;12.73;;
12459;SDS011;6295;49.452;8.466;2023-08-17T04:54:53;14.37;;;12.87;;
12459;SDS011;6295;49.452;8.466;2023-08-17T04:58:55;12.20;;;10.90;;
12459;SDS011;6295;49.452;8.466;2023-08-17T05:02:57;14.43;;;12.37;;
12459;SDS011;6295;49.452;8.466;2023-08-17T05:07:01;18.40;;;13.50;;
12459;SDS011;6295;49.452;8.466;2023-08-17T05:11:03;24.80;;;16.43;;
12459;SDS011;6295;49.452;8.466;2023-08-17T05:15:06;21.93;;;15.03;;
12459;SDS011;6295;49.452;8.466;2023-08-17T05:19:08;15.27;;;11.93;;
12459;SDS011;6295;49.452;8.466;2023-08-17T05:23:12;19.13;;;14.17;;
12459;SDS011;6295;49.452;8.466;2023-08-17T05:27:14;20.13;;;13.70;;
12459;SDS011;6295;49.452;8.466;2023-08-17T05:31:16;16.83;;;12.60;;
12459;SDS011;6295;49.452;8.466;2023-08-17T05:35:19;15.00;;;11.63;;
12459;SDS011;6295;49.452;8.466;2023-08-17T05:39:22;20.17;;;13.83;;
12459;SDS011;6295;49.452;8.466;2023-08-17T05:43:25;18.83;;;12.60;;
12459;SDS011;6295;49.452;8.466;2023-08-17T05:47:27;24.03;;;16.43;;
12459;SDS011;6295;49.452;8.466;2023-08-17T05:51:29;17.90;;;13.50;;
12459;SDS011;6295;49.452;8.466;2023-08-17T05:55:33;21.00;;;14.60;;
12459;SDS011;6295;49.452;8.466;2023-08-17T05:59:35;27.10;;;19.07;;
12459;SDS011;6295;49.452;8.466;2023-08-17T06:03:37;24.57;;;17.57;;
12459;SDS011;6295;49.452;8.466;2023-08-17T06:07:40;27.30;;;18.13;;
12459;SDS011;6295;49.452;8.466;2023-08-17T06:11:43;20.80;;;15.53;;
12459;SDS011;6295;49.452;8.466;2023-08-17T06:15:45;22.97;;;17.43;;
12459;SDS011;6295;49.452;8.466;2023-08-17T06:19:48;17.00;;;13.67;;
12459;SDS011;6295;49.452;8.466;2023-08-17T06:23:50;16.63;;;13.13;;
12459;SDS011;6295;49.452;8.466;2023-08-17T06:27:53;16.37;;;13.30;;
12459;SDS011;6295;49.452;8.466;2023-08-17T06:31:56;20.40;;;14.50;;
12459;SDS011;6295;49.452;8.466;2023-08-17T06:35:58;19.63;;;14.37;;
12459;SDS011;6295;49.452;8.466;2023-08-17T06:40:00;13.67;;;12.00;;
12459;SDS011;6295;49.452;8.466;2023-08-17T06:44:04;18.97;;;14.27;;
12459;SDS011;6295;49.452;8.466;2023-08-17T06:48:06;17.70;;;14.27;;
12459;SDS011;6295;49.452;8.466;2023-08-17T06:52:09;22.47;;;14.80;;
12459;SDS011;6295;49.452;8.466;2023-08-17T06:56:11;18.47;;;14.10;;
12459;SDS011;6295;49.452;8.466;2023-08-17T07:00:15;20.00;;;14.70;;
12459;SDS011;6295;49.452;8.466;2023-08-17T07:04:20;16.27;;;13.87;;
12459;SDS011;6295;49.452;8.466;2023-08-17T07:08:22;17.07;;;14.37;;
12459;SDS011;6295;49.452;8.466;2023-08-17T07:12:24;15.53;;;13.00;;
12459;SDS011;6295;49.452;8.466;2023-08-17T07:16:29;14.30;;;11.77;;
12459;SDS011;6295;49.452;8.466;2023-08-17T07:20:31;18.23;;;15.20;;
12459;SDS011;6295;49.452;8.466;2023-08-17T07:24:33;16.00;;;12.97;;
12459;SDS011;6295;49.452;8.466;2023-08-17T07:28:36;17.10;;;15.30;;
12459;SDS011;6295;49.452;8.466;2023-08-17T07:32:39;16.70;;;15.00;;
12459;SDS011;6295;49.452;8.466;2023-08-17T07:36:42;23.67;;;20.93;;
12459;SDS011;6295;49.452;8.466;2023-08-17T07:40:45;23.10;;;20.77;;
12459;SDS011;6295;49.452;8.466;2023-08-17T07:44:47;20.00;;;17.90;;
12459;SDS011;6295;49.452;8.466;2023-08-17T07:48:51;18.00;;;16.20;;
12459;SDS011;6295;49.452;8.466;2023-08-17T07:52:53;16.13;;;14.53;;
12459;SDS011;6295;49.452;8.466;2023-08-17T07:56:55;19.33;;;15.77;;
12459;SDS011;6295;49.452;8.466;2023-08-17T08:00:57;14.03;;;12.63;;
12459;SDS011;6295;49.452;8.466;2023-08-17T08:05:01;16.03;;;14.43;;
12459;SDS011;6295;49.452;8.466;2023-08-17T08:09:03;14.97;;;13.47;;
12459;SDS011;6295;49.452;8.466;2023-08-17T08:13:08;16.23;;;14.53;;
12459;SDS011;6295;49.452;8.466;2023-08-17T08:17:10;20.43;;;18.33;;
12459;SDS011;6295;49.452;8.466;2023-08-17T08:21:13;15.93;;;14.10;;
12459;SDS011;6295;49.452;8.466;2023-08-17T08:25:15;16.03;;;14.43;;
12459;SDS011;6295;49.452;8.466;2023-08-17T08:29:18;16.33;;;14.77;;
12459;SDS011;6295;49.452;8.466;2023-08-17T08:33:20;15.97;;;14.37;;
12459;SDS011;6295;49.452;8.466;2023-08-17T08:37:24;18.67;;;16.90;;
12459;SDS011;6295;49.452;8.466;2023-08-17T08:41:26;24.97;;;22.43;;
12459;SDS011;6295;49.452;8.466;2023-08-17T08:45:29;19.83;;;18.07;;
12459;SDS011;6295;49.452;8.466;2023-08-17T08:49:32;19.70;;;17.70;;
12459;SDS011;6295;49.452;8.466;2023-08-17T08:53:42;19.37;;;17.57;;
12459;SDS011;6295;49.452;8.466;2023-08-17T08:57:47;19.57;;;17.63;;
12459;SDS011;6295;49.452;8.466;2023-08-17T09:01:51;16.23;;;14.73;;
12459;SDS011;6295;49.452;8.466;2023-08-17T09:05:53;16.20;;;14.73;;
12459;SDS011;6295;49.452;8.466;2023-08-17T09:10:01;21.53;;;19.37;;
12459;SDS011;6295;49.452;8.466;2023-08-17T09:14:07;17.73;;;16.03;;
12459;SDS011;6295;49.452;8.466;2023-08-17T09:18:09;18.77;;;16.97;;
12459;SDS011;6295;49.452;8.466;2023-08-17T09:22:12;16.80;;;15.30;;
12459;SDS011;6295;49.452;8.466;2023-08-17T09:26:15;19.53;;;17.63;;
12459;SDS011;6295;49.452;8.466;2023-08-17T09:30:20;18.33;;;16.70;;
12459;SDS011;6295;49.452;8.466;2023-08-17T09:34:22;17.40;;;15.70;;
12459;SDS011;6295;49.452;8.466;2023-08-17T09:38:24;16.67;;;15.17;;
12459;SDS011;6295;49.452;8.466;2023-08-17T09:42:30;15.97;;;14.37;;
12459;SDS011;6295;49.452;8.466;2023-08-17T09:46:36;16.00;;;14.50;;
12459;SDS011;6295;49.452;8.466;2023-08-17T09:50:39;16.00;;;14.50;;
12459;SDS011;6295;49.452;8.466;2023-08-17T09:54:41;16.77;;;15.37;;
12459;SDS011;6295;49.452;8.466;2023-08-17T09:58:47;17.87;;;16.27;;
12459;SDS011;6295;49.452;8.466;2023-08-17T10:02:54;15.63;;;14.23;;
12459;SDS011;6295;49.452;8.466;2023-08-17T10:07:03;14.60;;;13.40;;
12459;SDS011;6295;49.452;8.466;2023-08-17T10:11:07;12.73;;;11.53;;
12459;SDS011;6295;49.452;8.466;2023-08-17T10:15:13;12.23;;;11.23;;
12459;SDS011;6295;49.452;8.466;2023-08-17T10:19:21;15.40;;;13.93;;
12459;SDS011;6295;49.452;8.466;2023-08-17T10:23:27;15.77;;;14.37;;
12459;SDS011;6295;49.452;8.466;2023-08-17T10:27:29;17.07;;;15.53;;
12459;SDS011;6295;49.452;8.466;2023-08-17T10:31:34;17.00;;;15.60;;
12459;SDS011;6295;49.452;8.466;2023-08-17T10:35:36;17.20;;;15.60;;
12459;SDS011;6295;49.452;8.466;2023-08-17T10:39:44;17.60;;;16.00;;
12459;SDS011;6295;49.452;8.466;2023-08-17T10:43:53;15.60;;;14.20;;
12459;SDS011;6295;49.452;8.466;2023-08-17T10:48:01;14.70;;;13.50;;
12459;SDS011;6295;49.452;8.466;2023-08-17T10:52:27;16.83;;;15.33;;
12459;SDS011;6295;49.452;8.466;2023-08-17T10:56:32;18.20;;;16.50;;
12459;SDS011;6295;49.452;8.466;2023-08-17T11:00:35;15.03;;;13.83;;
12459;SDS011;6295;49.452;8.466;2023-08-17T11:04:40;13.17;;;12.07;;
12459;SDS011;6295;49.452;8.466;2023-08-17T11:08:51;12.07;;;10.93;;
12459;SDS011;6295;49.452;8.466;2023-08-17T11:12:54;15.40;;;14.00;;
12459;SDS011;6295;49.452;8.466;2023-08-17T11:16:59;11.40;;;10.40;;
12459;SDS011;6295;49.452;8.466;2023-08-17T11:21:05;12.50;;;11.40;;
12459;SDS011;6295;49.452;8.466;2023-08-17T11:25:09;14.13;;;12.93;;
12459;SDS011;6295;49.452;8.466;2023-08-17T11:29:12;12.90;;;11.77;;
12459;SDS011;6295;49.452;8.466;2023-08-17T11:33:16;11.33;;;10.43;;
12459;SDS011;6295;49.452;8.466;2023-08-17T11:37:22;9.47;;;8.77;;
12459;SDS011;6295;49.452;8.466;2023-08-17T11:41:24;10.73;;;9.33;;
12459;SDS011;6295;49.452;8.466;2023-08-17T11:45:27;11.07;;;10.07;;
12459;SDS011;6295;49.452;8.466;2023-08-17T11:49:32;12.97;;;11.87;;
12459;SDS011;6295;49.452;8.466;2023-08-17T11:53:36;10.40;;;9.30;;
12459;SDS011;6295;49.452;8.466;2023-08-17T11:57:39;10.43;;;9.33;;
12459;SDS011;6295;49.452;8.466;2023-08-17T12:01:41;12.43;;;11.23;;
12459;SDS011;6295;49.452;8.466;2023-08-17T12:05:43;9.87;;;8.80;;
12459;SDS011;6295;49.452;8.466;2023-08-17T12:09:51;10.90;;;9.90;;
12459;SDS011;6295;49.452;8.466;2023-08-17T12:13:55;10.63;;;9.70;;
12459;SDS011;6295;49.452;8.466;2023-08-17T12:17:59;8.93;;;8.13;;
12459;SDS011;6295;49.452;8.466;2023-08-17T12:22:04;9.73;;;8.03;;
12459;SDS011;6295;49.452;8.466;2023-08-17T12:26:10;8.70;;;8.00;;
12459;SDS011;6295;49.452;8.466;2023-08-17T12:30:26;8.77;;;7.97;;
12459;SDS011;6295;49.452;8.466;2023-08-17T12:34:30;8.20;;;7.50;;
12459;SDS011;6295;49.452;8.466;2023-08-17T12:38:32;8.40;;;7.70;;
12459;SDS011;6295;49.452;8.466;2023-08-17T12:42:36;8.00;;;7.30;;
12459;SDS011;6295;49.452;8.466;2023-08-17T12:46:38;8.17;;;7.47;;
12459;SDS011;6295;49.452;8.466;2023-08-17T12:50:41;8.27;;;7.47;;
12459;SDS011;6295;49.452;8.466;2023-08-17T12:54:50;8.07;;;7.47;;
12459;SDS011;6295;49.452;8.466;2023-08-17T12:58:54;8.00;;;7.33;;
12459;SDS011;6295;49.452;8.466;2023-08-17T13:02:56;8.70;;;6.90;;
12459;SDS011;6295;49.452;8.466;2023-08-17T13:06:58;8.50;;;7.80;;
12459;SDS011;6295;49.452;8.466;2023-08-17T13:11:00;8.77;;;8.07;;
12459;SDS011;6295;49.452;8.466;2023-08-17T13:15:04;8.27;;;7.57;;
12459;SDS011;6295;49.452;8.466;2023-08-17T13:19:07;7.57;;;6.87;;
12459;SDS011;6295;49.452;8.466;2023-08-17T13:23:09;7.97;;;7.27;;
12459;SDS011;6295;49.452;8.466;2023-08-17T13:27:11;8.13;;;7.40;;
12459;SDS011;6295;49.452;8.466;2023-08-17T13:31:15;8.00;;;7.20;;
12459;SDS011;6295;49.452;8.466;2023-08-17T13:35:17;8.27;;;7.47;;
12459;SDS011;6295;49.452;8.466;2023-08-17T13:39:19;6.93;;;6.07;;
12459;SDS011;6295;49.452;8.466;2023-08-17T13:43:22;7.43;;;6.83;;
12459;SDS011;6295;49.452;8.466;2023-08-17T13:47:26;6.60;;;6.00;;
12459;SDS011;6295;49.452;8.466;2023-08-17T13:51:28;6.87;;;6.27;;
12459;SDS011;6295;49.452;8.466;2023-08-17T13:55:31;7.23;;;6.70;;
12459;SDS011;6295;49.452;8.466;2023-08-17T13:59:39;6.43;;;5.80;;
12459;SDS011;6295;49.452;8.466;2023-08-17T14:03:45;6.77;;;5.63;;
12459;SDS011;6295;49.452;8.466;2023-08-17T14:07:51;6.83;;;6.23;;
12459;SDS011;6295;49.452;8.466;2023-08-17T14:11:54;5.90;;;5.40;;
12459;SDS011;6295;49.452;8.466;2023-08-17T14:15:56;6.40;;;5.80;;
12459;SDS011;6295;49.452;8.466;2023-08-17T14:20:01;6.00;;;5.50;;
12459;SDS011;6295;49.452;8.466;2023-08-17T14:24:04;6.63;;;5.90;;
12459;SDS011;6295;49.452;8.466;2023-08-17T14:28:10;6.37;;;5.80;;
12459;SDS011;6295;49.452;8.466;2023-08-17T14:32:16;6.40;;;5.90;;
12459;SDS011;6295;49.452;8.466;2023-08-17T14:36:19;7.33;;;5.50;;
12459;SDS011;6295;49.452;8.466;2023-08-17T14:40:21;6.30;;;5.73;;
12459;SDS011;6295;49.452;8.466;2023-08-17T14:44:24;6.07;;;5.47;;
12459;SDS011;6295;49.452;8.466;2023-08-17T14:48:26;5.90;;;5.40;;
12459;SDS011;6295;49.452;8.466;2023-08-17T14:52:31;7.13;;;5.63;;
12459;SDS011;6295;49.452;8.466;2023-08-17T14:56:34;6.17;;;5.57;;
12459;SDS011;6295;49.452;8.466;2023-08-17T15:00:36;6.10;;;5.60;;
12459;SDS011;6295;49.452;8.466;2023-08-17T15:04:38;6.77;;;6.17;;
12459;SDS011;6295;49.452;8.466;2023-08-17T15:08:42;5.47;;;5.00;;
12459;SDS011;6295;49.452;8.466;2023-08-17T15:12:44;6.13;;;5.63;;
12459;SDS011;6295;49.452;8.466;2023-08-17T15:16:46;6.63;;;6.00;;
12459;SDS011;6295;49.452;8.466;2023-08-17T15:20:48;6.40;;;5.80;;
12459;SDS011;6295;49.452;8.466;2023-08-17T15:24:52;6.87;;;6.27;;
12459;SDS011;6295;49.452;8.466;2023-08-17T15:28:55;7.77;;;6.97;;
12459;SDS011;6295;49.452;8.466;2023-08-17T15:32:58;7.73;;;6.30;;
12459;SDS011;6295;49.452;8.466;2023-08-17T15:37:00;7.50;;;6.70;;
12459;SDS011;6295;49.452;8.466;2023-08-17T15:41:03;8.83;;;6.90;;
12459;SDS011;6295;49.452;8.466;2023-08-17T15:45:06;7.10;;;6.33;;
12459;SDS011;6295;49.452;8.466;2023-08-17T15:49:09;6.20;;;5.60;;
12459;SDS011;6295;49.452;8.466;2023-08-17T15:53:12;6.10;;;5.50;;
12459;SDS011;6295;49.452;8.466;2023-08-17T15:57:15;6.10;;;5.50;;
12459;SDS011;6295;49.452;8.466;2023-08-17T16:01:17;6.13;;;5.40;;
12459;SDS011;6295;49.452;8.466;2023-08-17T16:05:19;5.67;;;5.17;;
12459;SDS011;6295;49.452;8.466;2023-08-17T16:09:22;5.80;;;5.30;;
12459;SDS011;6295;49.452;8.466;2023-08-17T16:13:27;6.17;;;5.57;;
12459;SDS011;6295;49.452;8.466;2023-08-17T16:17:30;5.67;;;5.17;;
12459;SDS011;6295;49.452;8.466;2023-08-17T16:21:32;5.80;;;5.20;;
12459;SDS011;6295;49.452;8.466;2023-08-17T16:25:34;6.40;;;5.73;;
12459;SDS011;6295;49.452;8.466;2023-08-17T16:29:38;6.07;;;5.53;;
12459;SDS011;6295;49.452;8.466;2023-08-17T16:33:40;5.83;;;5.33;;
12459;SDS011;6295;49.452;8.466;2023-08-17T16:37:42;5.90;;;5.40;;
12459;SDS011;6295;49.452;8.466;2023-08-17T16:41:48;5.50;;;5.10;;
12459;SDS011;6295;49.452;8.466;2023-08-17T16:45:55;6.00;;;5.40;;
12459;SDS011;6295;49.452;8.466;2023-08-17T16:49:57;6.33;;;5.83;;
12459;SDS011;6295;49.452;8.466;2023-08-17T16:54:00;7.43;;;6.20;;
12459;SDS011;6295;49.452;8.466;2023-08-17T16:58:03;8.80;;;6.10;;
12459;SDS011;6295;49.452;8.466;2023-08-17T17:02:06;7.87;;;6.93;;
12459;SDS011;6295;49.452;8.466;2023-08-17T17:06:08;8.27;;;7.47;;
12459;SDS011;6295;49.452;8.466;2023-08-17T17:10:12;7.53;;;6.70;;
12459;SDS011;6295;49.452;8.466;2023-08-17T17:14:14;7.57;;;6.70;;
12459;SDS011;6295;49.452;8.466;2023-08-17T17:18:18;7.33;;;6.63;;
12459;SDS011;6295;49.452;8.466;2023-08-17T17:22:21;7.63;;;5.90;;
12459;SDS011;6295;49.452;8.466;2023-08-17T17:26:23;6.67;;;5.90;;
12459;SDS011;6295;49.452;8.466;2023-08-17T17:30:25;6.60;;;6.10;;
12459;SDS011;6295;49.452;8.466;2023-08-17T17:34:29;6.30;;;5.80;;
12459;SDS011;6295;49.452;8.466;2023-08-17T17:38:31;6.50;;;5.90;;
12459;SDS011;6295;49.452;8.466;2023-08-17T17:42:34;6.53;;;5.97;;
12459;SDS011;6295;49.452;8.466;2023-08-17T17:46:39;6.97;;;6.37;;
12459;SDS011;6295;49.452;8.466;2023-08-17T17:50:46;7.13;;;6.53;;
12459;SDS011;6295;49.452;8.466;2023-08-17T17:54:51;6.80;;;6.30;;
12459;SDS011;6295;49.452;8.466;2023-08-17T17:58:53;6.63;;;6.13;;
12459;SDS011;6295;49.452;8.466;2023-08-17T18:03:06;6.63;;;6.10;;
12459;SDS011;6295;49.452;8.466;2023-08-17T18:07:12;6.63;;;6.00;;
12459;SDS011;6295;49.452;8.466;2023-08-17T18:11:14;6.70;;;6.10;;
12459;SDS011;6295;49.452;8.466;2023-08-17T18:15:16;6.53;;;6.00;;
12459;SDS011;6295;49.452;8.466;2023-08-17T18:19:21;6.27;;;5.77;;
12459;SDS011;6295;49.452;8.466;2023-08-17T18:23:25;6.67;;;6.17;;
12459;SDS011;6295;49.452;8.466;2023-08-17T18:27:29;6.70;;;6.20;;
12459;SDS011;6295;49.452;8.466;2023-08-17T18:31:32;7.00;;;6.27;;
12459;SDS011;6295;49.452;8.466;2023-08-17T18:35:40;6.97;;;6.47;;
12459;SDS011;6295;49.452;8.466;2023-08-17T18:39:44;6.70;;;6.20;;
12459;SDS011;6295;49.452;8.466;2023-08-17T18:43:47;6.80;;;6.30;;
12459;SDS011;6295;49.452;8.466;2023-08-17T18:47:52;7.57;;;6.97;;
12459;SDS011;6295;49.452;8.466;2023-08-17T18:51:54;7.20;;;6.60;;
